Time;durP1;ratioP1;P1;durP2;ratioP2;P2;SDS_P1;SDS_P2;PMS_P1;PMS_P2;Temp;Humidity;BMP_temperature;BMP_pressure;BME280_temperature;BME280_humidity;BME280_pressure;Samples;Min_cycle;Max_cycle;Signal;HPM_P1;HPM_P2
2023/04/25 12:19:06;;;;;;;2.63;0.60;;;10.90;76.20;;;;;;5150901;27;20188;-68
2023/04/25 12:21:32;;;;;;;1.10;0.68;;;10.50;78.40;;;;;;5112119;28;20092;-68
2023/04/25 12:24:11;;;;;;;1.38;0.47;;;10.30;81.40;;;;;;5129880;28;20031;-68
2023/04/25 12:26:53;;;;;;;2.20;0.63;;;10.20;83.80;;;;;;5126157;28;20043;-71
2023/04/25 12:29:27;;;;;;;2.40;0.60;;;10.00;85.20;;;;;;5129546;28;20039;-69
2023/04/25 12:31:54;;;;;;;0.50;0.50;;;9.90;86.20;;;;;;5130195;28;20046;-71
2023/04/25 12:34:21;;;;;;;0.55;0.45;;;9.80;86.80;;;;;;5130478;28;20081;-70
2023/04/25 12:36:48;;;;;;;1.00;0.80;;;9.70;87.30;;;;;;5094394;28;20892;-69
2023/04/25 12:39:22;;;;;;;0.52;0.40;;;9.70;87.60;;;;;;5129725;28;20545;-70
2023/04/25 12:41:48;;;;;;;1.00;0.60;;;9.60;87.50;;;;;;5129745;28;20074;-69
2023/04/25 12:44:14;;;;;;;4.50;0.70;;;9.60;87.70;;;;;;5129501;28;20036;-71
2023/04/25 12:46:41;;;;;;;1.20;0.60;;;9.70;87.50;;;;;;5111209;28;20038;-70
2023/04/25 12:49:08;;;;;;;1.50;0.65;;;9.70;87.40;;;;;;5129586;28;20066;-70
2023/04/25 12:51:35;;;;;;;2.25;0.50;;;9.80;87.30;;;;;;5111581;28;20118;-71
2023/04/25 12:54:02;;;;;;;0.32;0.32;;;10.00;86.90;;;;;;5129311;28;20046;-71
2023/04/25 12:56:27;;;;;;;0.30;0.30;;;10.20;86.70;;;;;;5129375;28;20131;-70
2023/04/25 12:58:53;;;;;;;0.40;0.40;;;10.40;86.20;;;;;;5129480;28;20118;-71
2023/04/25 13:01:20;;;;;;;1.80;0.50;;;10.50;85.50;;;;;;5129807;28;20105;-69
2023/04/25 13:03:46;;;;;;;0.30;0.28;;;10.60;85.10;;;;;;5129334;28;20040;-70
2023/04/25 13:06:12;;;;;;;2.75;0.50;;;10.60;84.60;;;;;;5129713;28;20035;-69
2023/04/25 13:08:38;;;;;;;0.35;0.30;;;10.80;84.50;;;;;;5110930;28;20052;-70
2023/04/25 13:11:05;;;;;;;0.57;0.40;;;10.90;83.90;;;;;;5093484;28;20129;-70
2023/04/25 13:13:31;;;;;;;0.55;0.20;;;10.90;83.70;;;;;;5129634;28;20039;-70
2023/04/25 13:15:57;;;;;;;0.82;0.40;;;11.00;83.40;;;;;;5129172;28;20449;-70
2023/04/25 13:18:26;;;;;;;1.05;0.50;;;11.10;82.90;;;;;;5129353;28;20522;-70
2023/04/25 13:20:53;;;;;;;0.82;0.40;;;11.20;82.40;;;;;;5129400;28;20046;-70
2023/04/25 13:23:20;;;;;;;0.17;0.17;;;11.20;82.30;;;;;;5129002;28;20114;-70
2023/04/25 13:25:46;;;;;;;0.30;0.30;;;11.30;82.10;;;;;;5129404;28;20042;-69
2023/04/25 13:28:12;;;;;;;0.88;0.40;;;11.20;81.80;;;;;;5128724;28;20066;-70
2023/04/25 13:30:38;;;;;;;0.80;0.38;;;11.00;81.80;;;;;;5115055;28;20048;-70
2023/04/25 13:33:03;;;;;;;0.77;0.40;;;10.90;82.20;;;;;;5115613;28;20027;-70
2023/04/25 13:35:30;;;;;;;0.73;0.30;;;10.80;82.50;;;;;;5115242;28;20096;-70
2023/04/25 13:37:56;;;;;;;1.75;0.40;;;10.70;82.70;;;;;;5114859;28;20043;-70
2023/04/25 13:40:22;;;;;;;0.35;0.35;;;10.80;82.90;;;;;;5115348;28;20067;-69
2023/04/25 13:42:48;;;;;;;0.63;0.30;;;10.80;82.40;;;;;;5096831;28;20074;-70
2023/04/25 13:45:13;;;;;;;1.65;0.68;;;11.00;82.20;;;;;;5115310;28;20059;-70
2023/04/25 13:47:39;;;;;;;0.73;0.45;;;11.10;81.60;;;;;;5115003;28;20050;-70
2023/04/25 13:50:07;;;;;;;0.95;0.50;;;11.10;81.20;;;;;;5114954;28;20036;-70
2023/04/25 13:52:32;;;;;;;0.40;0.40;;;11.00;80.90;;;;;;5114846;28;20040;-70
2023/04/25 13:54:58;;;;;;;0.90;0.40;;;10.90;81.10;;;;;;5115424;28;20035;-70
2023/04/25 13:57:24;;;;;;;0.30;0.30;;;10.90;81.10;;;;;;5115332;28;20050;-70
2023/04/25 13:59:50;;;;;;;0.50;0.40;;;10.90;81.10;;;;;;5114740;28;20035;-70
2023/04/25 14:02:16;;;;;;;0.40;0.40;;;11.00;81.00;;;;;;5115162;28;20032;-70
2023/04/25 14:04:42;;;;;;;0.63;0.38;;;11.00;80.60;;;;;;5114616;28;20044;-70
2023/04/25 14:07:08;;;;;;;0.40;0.40;;;11.10;80.40;;;;;;5114659;28;20047;-71
2023/04/25 14:09:34;;;;;;;0.60;0.35;;;11.10;80.10;;;;;;5115014;28;20457;-70
2023/04/25 14:12:00;;;;;;;0.75;0.30;;;11.20;79.90;;;;;;5114622;28;20070;-71
2023/04/25 14:14:26;;;;;;;0.30;0.30;;;11.30;79.50;;;;;;5079470;28;20545;-71
2023/04/25 14:16:53;;;;;;;0.73;0.40;;;11.50;79.00;;;;;;5114430;28;20048;-71
2023/04/25 14:19:20;;;;;;;0.73;0.50;;;11.60;78.50;;;;;;5096120;28;20131;-70
2023/04/25 14:21:46;;;;;;;1.50;0.50;;;11.70;77.80;;;;;;5095038;28;20549;-70
2023/04/25 14:24:13;;;;;;;1.05;0.50;;;11.60;77.30;;;;;;5094588;28;20123;-70
2023/04/25 14:26:40;;;;;;;1.23;0.40;;;11.50;77.20;;;;;;5114173;28;20108;-70
2023/04/25 14:29:07;;;;;;;0.80;0.40;;;11.30;77.70;;;;;;5114597;28;20035;-70
2023/04/25 14:31:33;;;;;;;0.57;0.40;;;11.30;78.00;;;;;;5094687;28;20048;-70
2023/04/25 14:33:58;;;;;;;1.45;0.50;;;11.20;78.00;;;;;;5114570;28;20054;-69
2023/04/25 14:36:26;;;;;;;0.85;0.50;;;11.10;78.10;;;;;;5114536;28;20051;-70
2023/04/25 14:38:52;;;;;;;0.57;0.40;;;11.10;78.10;;;;;;5096107;28;20090;-70
2023/04/25 14:41:18;;;;;;;0.65;0.40;;;11.20;78.20;;;;;;5113000;28;20058;-70
2023/04/25 14:43:44;;;;;;;2.55;0.60;;;11.30;77.70;;;;;;5114453;28;20477;-70
2023/04/25 14:46:10;;;;;;;2.33;0.70;;;11.40;77.40;;;;;;5078979;28;20558;-70
2023/04/25 14:48:36;;;;;;;0.52;0.38;;;11.30;76.70;;;;;;5113785;28;20039;-70
2023/04/25 14:51:02;;;;;;;1.45;0.50;;;11.30;76.80;;;;;;5114367;28;20528;-71
2023/04/25 14:53:28;;;;;;;0.70;0.65;;;11.20;76.70;;;;;;5113745;28;20039;-70
2023/04/25 14:55:54;;;;;;;0.90;0.40;;;11.30;76.50;;;;;;5113720;28;20432;-70
2023/04/25 14:58:20;;;;;;;1.08;0.50;;;11.30;76.30;;;;;;5114138;28;20044;-70
2023/04/25 15:00:46;;;;;;;0.93;0.40;;;11.20;76.10;;;;;;5113903;28;20031;-71
2023/04/25 15:03:12;;;;;;;1.33;0.55;;;11.30;75.60;;;;;;5114082;28;20128;-70
2023/04/25 15:05:39;;;;;;;1.65;0.50;;;11.30;75.40;;;;;;5114010;28;20027;-70
2023/04/25 15:08:05;;;;;;;1.95;0.50;;;11.30;75.40;;;;;;5114089;28;20036;-70
2023/04/25 15:10:31;;;;;;;0.98;0.50;;;11.30;75.50;;;;;;5113947;28;20049;-70
2023/04/25 15:12:57;;;;;;;0.98;0.50;;;11.40;75.40;;;;;;5113957;28;20550;-70
2023/04/25 15:15:23;;;;;;;0.73;0.30;;;11.50;75.10;;;;;;5113494;28;20079;-70
2023/04/25 15:17:49;;;;;;;0.40;0.32;;;11.70;74.70;;;;;;5113479;28;20047;-70
2023/04/25 15:20:15;;;;;;;0.70;0.57;;;11.80;74.30;;;;;;5113458;28;20031;-69
2023/04/25 15:22:42;;;;;;;2.00;0.47;;;11.80;73.60;;;;;;5113408;28;20044;-69
2023/04/25 15:25:09;;;;;;;0.57;0.40;;;11.80;73.60;;;;;;5113544;28;20031;-69
2023/04/25 15:27:39;;;;;;;0.55;0.30;;;11.80;73.60;;;;;;5094851;28;20374;-70
2023/04/25 15:30:07;;;;;;;1.90;0.40;;;11.80;73.50;;;;;;5113187;28;20420;-69
2023/04/25 15:32:33;;;;;;;0.50;0.38;;;11.70;73.50;;;;;;5113193;28;20047;-70
2023/04/25 15:35:03;;;;;;;0.47;0.30;;;11.50;74.30;;;;;;5113120;28;20176;-70
2023/04/25 15:37:28;;;;;;;1.35;0.52;;;11.20;74.00;;;;;;5113006;28;20501;-71
2023/04/25 15:40:12;;;;;;;1.17;0.50;;;11.20;74.60;;;;;;5113208;28;20042;-69
2023/04/25 15:42:41;;;;;;;1.00;0.40;;;11.20;74.60;;;;;;5113514;28;20069;-69
2023/04/25 15:45:08;;;;;;;0.95;0.50;;;11.20;74.60;;;;;;5113113;28;20528;-70
2023/04/25 15:47:35;;;;;;;1.05;0.43;;;11.30;74.50;;;;;;5113070;28;20048;-71
2023/04/25 15:50:01;;;;;;;1.55;0.50;;;11.40;74.60;;;;;;5093282;28;20056;-72
2023/04/25 15:52:27;;;;;;;0.55;0.30;;;11.50;74.30;;;;;;5112720;28;20085;-71
2023/04/25 15:54:53;;;;;;;1.65;0.40;;;11.60;73.90;;;;;;5113347;28;20071;-71
2023/04/25 15:57:19;;;;;;;0.40;0.40;;;11.50;73.70;;;;;;5112724;28;20047;-71
2023/04/25 15:59:45;;;;;;;0.45;0.43;;;11.40;73.70;;;;;;5112946;28;20126;-71
2023/04/25 16:02:12;;;;;;;2.67;0.70;;;11.30;74.00;;;;;;5112821;28;20070;-71
2023/04/25 16:04:38;;;;;;;0.57;0.40;;;11.30;74.10;;;;;;5112757;28;20047;-71
2023/04/25 16:07:04;;;;;;;1.50;0.50;;;11.30;74.20;;;;;;5113506;28;20040;-71
2023/04/25 16:09:30;;;;;;;0.60;0.30;;;11.30;74.20;;;;;;5112865;28;20122;-71
2023/04/25 16:11:56;;;;;;;0.28;0.28;;;11.30;73.90;;;;;;5113130;28;20066;-71
2023/04/25 16:14:22;;;;;;;0.60;0.45;;;11.30;73.50;;;;;;5112610;28;20504;-71
2023/04/25 16:16:48;;;;;;;1.25;0.52;;;11.30;73.40;;;;;;5112587;28;20134;-69
2023/04/25 16:19:14;;;;;;;1.88;0.40;;;11.20;73.40;;;;;;5112519;28;20478;-71
2023/04/25 16:21:40;;;;;;;0.55;0.32;;;11.10;73.50;;;;;;5112662;28;20084;-71
2023/04/25 16:24:07;;;;;;;0.60;0.45;;;11.10;73.70;;;;;;5112991;28;20043;-71
2023/04/25 16:26:32;;;;;;;2.72;0.40;;;10.90;73.60;;;;;;5094500;28;20031;-71
2023/04/25 16:28:59;;;;;;;0.52;0.32;;;10.80;73.80;;;;;;5113112;28;20044;-71
2023/04/25 16:31:25;;;;;;;0.82;0.32;;;10.70;74.00;;;;;;5113047;28;20039;-71
2023/04/25 16:33:50;;;;;;;0.45;0.30;;;10.60;74.20;;;;;;5094063;28;20040;-72
2023/04/25 16:36:16;;;;;;;0.28;0.20;;;10.60;74.30;;;;;;5112267;28;20046;-71
2023/04/25 16:38:42;;;;;;;0.75;0.30;;;10.60;74.40;;;;;;5112369;28;20082;-71
2023/04/25 16:41:07;;;;;;;1.10;0.30;;;10.60;74.20;;;;;;5112801;28;20105;-71
2023/04/25 16:43:33;;;;;;;0.63;0.30;;;10.70;74.20;;;;;;5112249;28;20080;-71
2023/04/25 16:45:59;;;;;;;0.30;0.30;;;10.70;73.90;;;;;;5112590;28;20031;-71
2023/04/25 16:48:25;;;;;;;0.40;0.40;;;10.80;73.70;;;;;;5112414;28;20093;-71
2023/04/25 16:50:51;;;;;;;1.40;0.30;;;11.00;73.30;;;;;;5093498;28;20489;-69
2023/04/25 16:53:17;;;;;;;0.88;0.50;;;11.10;72.60;;;;;;5092910;28;20044;-71
2023/04/25 16:55:43;;;;;;;0.60;0.40;;;10.90;72.20;;;;;;5112242;28;20107;-71
2023/04/25 16:58:10;;;;;;;0.57;0.50;;;10.80;72.60;;;;;;5112170;28;20044;-71
2023/04/25 17:00:38;;;;;;;0.40;0.40;;;10.50;72.80;;;;;;5112164;28;20518;-71
2023/04/25 17:03:03;;;;;;;1.13;0.50;;;10.40;73.20;;;;;;5112213;28;20043;-71
2023/04/25 17:05:29;;;;;;;1.50;0.50;;;10.20;73.50;;;;;;5114970;28;20040;-71
2023/04/25 17:07:55;;;;;;;0.60;0.30;;;10.30;73.70;;;;;;5115434;28;20099;-69
2023/04/25 17:10:21;;;;;;;0.75;0.38;;;10.20;73.60;;;;;;5115496;28;20100;-69
2023/04/25 17:12:48;;;;;;;0.30;0.30;;;10.30;73.80;;;;;;5115454;28;20137;-70
2023/04/25 17:15:14;;;;;;;0.43;0.43;;;10.30;73.50;;;;;;5115395;28;20044;-70
2023/04/25 17:17:40;;;;;;;0.95;0.40;;;10.30;73.30;;;;;;5115837;28;20492;-69
2023/04/25 17:20:07;;;;;;;0.75;0.43;;;10.20;73.10;;;;;;5097333;28;20036;-69
2023/04/25 17:22:34;;;;;;;1.27;0.40;;;10.00;73.20;;;;;;5115336;28;20401;-70
2023/04/25 17:25:00;;;;;;;1.20;0.45;;;9.90;73.60;;;;;;5115014;28;20044;-70
2023/04/25 17:27:26;;;;;;;0.40;0.40;;;9.80;73.70;;;;;;5115438;28;20500;-69
2023/04/25 17:29:51;;;;;;;2.40;0.60;;;9.60;73.80;;;;;;5115566;28;20070;-69
2023/04/25 17:32:17;;;;;;;0.40;0.40;;;9.50;74.10;;;;;;5115100;28;20040;-69
2023/04/25 17:34:44;;;;;;;0.52;0.52;;;9.40;74.10;;;;;;5115059;28;20109;-69
2023/04/25 17:37:14;;;;;;;1.77;0.63;;;9.30;74.20;;;;;;5095518;28;20083;-69
2023/04/25 17:39:41;;;;;;;1.15;0.50;;;9.30;74.30;;;;;;5115201;28;20071;-69
2023/04/25 17:42:07;;;;;;;0.98;0.60;;;9.20;74.40;;;;;;5115089;28;20103;-69
2023/04/25 17:44:33;;;;;;;0.75;0.50;;;9.20;74.40;;;;;;5115042;28;20070;-70
2023/04/25 17:47:00;;;;;;;0.57;0.40;;;9.10;74.20;;;;;;5115057;28;20072;-69
2023/04/25 17:49:25;;;;;;;0.70;0.28;;;9.10;74.30;;;;;;5114959;28;20489;-69
2023/04/25 17:51:51;;;;;;;0.63;0.35;;;9.20;74.90;;;;;;5114869;28;20042;-69
2023/04/25 17:54:17;;;;;;;0.40;0.40;;;9.20;74.10;;;;;;5095844;28;20134;-69
2023/04/25 17:56:43;;;;;;;1.05;0.50;;;9.10;74.10;;;;;;5095258;28;20117;-69
2023/04/25 17:59:09;;;;;;;0.40;0.40;;;9.10;74.10;;;;;;5114799;28;20489;-69
2023/04/25 18:01:35;;;;;;;1.00;0.50;;;9.00;74.10;;;;;;5115312;28;20047;-69
2023/04/25 18:04:03;;;;;;;0.30;0.30;;;9.00;74.10;;;;;;5114789;28;20119;-70
2023/04/25 18:06:29;;;;;;;0.73;0.32;;;9.00;74.30;;;;;;5114672;28;20032;-69
2023/04/25 18:08:55;;;;;;;0.52;0.38;;;8.90;74.30;;;;;;5096475;28;20062;-70
2023/04/25 18:11:22;;;;;;;0.30;0.30;;;8.90;74.30;;;;;;5114825;28;20505;-69
2023/04/25 18:13:48;;;;;;;0.77;0.35;;;8.90;74.40;;;;;;5115061;28;20066;-69
2023/04/25 18:16:13;;;;;;;0.40;0.38;;;8.90;74.40;;;;;;5095139;28;20489;-69
2023/04/25 18:18:42;;;;;;;0.40;0.40;;;8.80;74.30;;;;;;5114335;28;20044;-69
2023/04/25 18:21:08;;;;;;;0.63;0.28;;;8.80;74.40;;;;;;5114813;28;20044;-70
2023/04/25 18:23:34;;;;;;;0.20;0.20;;;8.80;74.40;;;;;;5114448;28;20047;-70
2023/04/25 18:26:01;;;;;;;0.57;0.30;;;8.70;74.50;;;;;;5114802;28;20118;-69
2023/04/25 18:28:28;;;;;;;0.85;0.30;;;8.80;74.60;;;;;;5114433;28;20071;-69
2023/04/25 18:30:53;;;;;;;0.95;0.20;;;8.70;74.60;;;;;;5114300;28;20035;-70
2023/04/25 18:33:21;;;;;;;1.42;0.60;;;8.60;74.50;;;;;;5114435;28;20547;-70
2023/04/25 18:35:47;;;;;;;0.32;0.20;;;8.50;74.50;;;;;;5114425;28;20481;-69
2023/04/25 18:38:13;;;;;;;0.45;0.30;;;8.40;74.60;;;;;;5114118;28;20044;-69
2023/04/25 18:40:39;;;;;;;0.75;0.30;;;8.40;74.60;;;;;;5114637;28;20032;-69
2023/04/25 18:43:05;;;;;;;0.30;0.30;;;8.30;74.60;;;;;;5114187;28;20035;-69
2023/04/25 18:45:30;;;;;;;0.20;0.20;;;8.30;74.70;;;;;;5114459;28;20485;-70
2023/04/25 18:47:56;;;;;;;0.52;0.40;;;8.30;74.70;;;;;;5095659;28;20043;-69
2023/04/25 18:50:25;;;;;;;0.43;0.40;;;8.20;74.70;;;;;;5114168;28;20039;-70
2023/04/25 18:52:51;;;;;;;0.80;0.30;;;8.20;74.80;;;;;;5095698;28;20054;-72
2023/04/25 18:55:16;;;;;;;0.35;0.28;;;8.10;74.80;;;;;;5113891;28;20562;-72
2023/04/25 18:57:42;;;;;;;0.30;0.30;;;8.10;74.90;;;;;;5094747;28;20080;-72
2023/04/25 19:00:10;;;;;;;0.45;0.30;;;8.00;74.90;;;;;;5114195;28;20047;-71
2023/04/25 19:02:35;;;;;;;0.77;0.50;;;8.00;74.90;;;;;;5113897;28;20039;-71
2023/04/25 19:05:01;;;;;;;0.30;0.20;;;8.00;74.80;;;;;;5113790;28;20070;-72
2023/04/25 19:07:29;;;;;;;0.55;0.30;;;7.90;74.80;;;;;;5094430;28;20036;-72
2023/04/25 19:09:55;;;;;;;0.22;0.22;;;7.80;74.80;;;;;;5113738;28;20471;-71
2023/04/25 19:12:21;;;;;;;0.28;0.20;;;7.80;74.80;;;;;;5113735;28;20054;-71
2023/04/25 19:14:47;;;;;;;1.65;0.22;;;7.80;74.90;;;;;;5114133;28;20043;-71
2023/04/25 19:17:13;;;;;;;0.77;0.43;;;7.70;74.90;;;;;;5113927;28;20051;-71
2023/04/25 19:19:38;;;;;;;0.30;0.30;;;7.70;75.10;;;;;;5093918;28;20543;-72
2023/04/25 19:22:04;;;;;;;1.88;0.40;;;7.60;75.00;;;;;;5113499;28;20097;-73
2023/04/25 19:24:30;;;;;;;0.43;0.30;;;7.60;75.10;;;;;;5113797;28;20137;-73
2023/04/25 19:26:55;;;;;;;0.20;0.20;;;7.50;75.20;;;;;;5112751;28;20401;-73
2023/04/25 19:29:21;;;;;;;0.30;0.30;;;7.50;75.30;;;;;;5113401;28;20035;-73
2023/04/25 19:31:47;;;;;;;0.20;0.20;;;7.50;75.30;;;;;;5078205;28;20102;-73
2023/04/25 19:34:13;;;;;;;0.60;0.20;;;7.40;75.40;;;;;;5093091;28;20524;-73
2023/04/25 19:36:41;;;;;;;0.32;0.30;;;7.40;75.60;;;;;;5113411;28;20036;-73
2023/04/25 19:39:07;;;;;;;0.82;0.40;;;7.30;75.60;;;;;;5113164;28;20035;-73
2023/04/25 19:41:35;;;;;;;0.28;0.28;;;7.30;75.60;;;;;;5113263;28;20397;-73
2023/04/25 19:44:04;;;;;;;0.20;0.20;;;7.20;75.60;;;;;;5113171;28;20040;-73
2023/04/25 19:46:30;;;;;;;0.22;0.20;;;7.20;75.80;;;;;;5109898;28;20394;-72
2023/04/25 19:48:56;;;;;;;0.35;0.30;;;7.10;75.90;;;;;;5095375;28;20051;-73
2023/04/25 19:51:22;;;;;;;0.77;0.40;;;7.20;76.00;;;;;;5113138;28;20051;-72
2023/04/25 19:53:48;;;;;;;0.52;0.43;;;7.10;76.00;;;;;;5113022;28;20047;-72
2023/04/25 19:56:14;;;;;;;0.70;0.30;;;7.00;76.00;;;;;;5113062;28;20378;-72
2023/04/25 19:58:39;;;;;;;0.70;0.40;;;7.00;76.00;;;;;;5112899;28;20047;-73
2023/04/25 20:01:06;;;;;;;0.70;0.40;;;7.00;76.10;;;;;;5112942;28;20126;-73
2023/04/25 20:03:32;;;;;;;0.60;0.50;;;6.90;76.20;;;;;;5112963;28;20043;-72
2023/04/25 20:05:57;;;;;;;0.73;0.30;;;6.90;76.20;;;;;;5094546;28;20089;-73
2023/04/25 20:08:24;;;;;;;1.98;0.50;;;6.80;76.20;;;;;;5112670;28;20032;-73
2023/04/25 20:10:50;;;;;;;0.30;0.30;;;6.80;76.20;;;;;;5112709;28;20044;-73
2023/04/25 20:13:16;;;;;;;0.40;0.40;;;6.70;76.30;;;;;;5112659;28;20063;-72
2023/04/25 20:15:42;;;;;;;0.93;0.30;;;6.70;76.40;;;;;;5112551;28;20046;-72
2023/04/25 20:18:07;;;;;;;0.75;0.30;;;6.70;76.50;;;;;;5112347;28;20048;-72
2023/04/25 20:20:33;;;;;;;0.68;0.30;;;6.70;76.60;;;;;;5112544;28;20032;-73
2023/04/25 20:22:59;;;;;;;0.40;0.40;;;6.70;76.60;;;;;;5112673;28;20128;-74
2023/04/25 20:25:24;;;;;;;0.22;0.22;;;6.60;76.60;;;;;;5113118;28;20388;-74
2023/04/25 20:27:50;;;;;;;0.32;0.25;;;6.60;76.80;;;;;;5094246;28;20052;-74
2023/04/25 20:30:17;;;;;;;0.30;0.30;;;6.60;76.80;;;;;;5113027;28;20098;-73
2023/04/25 20:32:43;;;;;;;0.10;0.10;;;6.50;77.00;;;;;;5092861;28;20048;-73
2023/04/25 20:35:09;;;;;;;0.73;0.50;;;6.40;77.00;;;;;;5112444;28;20481;-73
2023/04/25 20:37:35;;;;;;;0.20;0.20;;;6.50;77.20;;;;;;5112293;28;20412;-74
2023/04/25 20:40:02;;;;;;;0.57;0.20;;;6.40;77.20;;;;;;5078137;28;20039;-73
2023/04/25 20:42:28;;;;;;;0.20;0.20;;;6.40;77.30;;;;;;5095920;28;20123;-74
2023/04/25 20:44:54;;;;;;;0.60;0.40;;;6.30;77.30;;;;;;5116408;28;20035;-73
2023/04/25 20:47:21;;;;;;;0.68;0.38;;;6.20;77.40;;;;;;5096637;28;20440;-73
2023/04/25 20:49:46;;;;;;;0.20;0.20;;;6.20;77.40;;;;;;5116299;28;20393;-74
2023/04/25 20:52:12;;;;;;;0.47;0.30;;;6.20;77.50;;;;;;5116958;28;20043;-75
2023/04/25 20:54:38;;;;;;;0.40;0.20;;;6.20;77.60;;;;;;5116318;28;20559;-73
2023/04/25 20:57:04;;;;;;;0.32;0.30;;;6.20;77.70;;;;;;5115481;28;20471;-73
2023/04/25 20:59:29;;;;;;;0.30;0.30;;;6.10;77.70;;;;;;5116306;28;20036;-73
2023/04/25 21:01:55;;;;;;;0.30;0.30;;;6.10;77.80;;;;;;5097835;28;20040;-74
2023/04/25 21:04:21;;;;;;;0.30;0.20;;;6.00;77.80;;;;;;5115676;28;20366;-74
2023/04/25 21:06:47;;;;;;;0.30;0.20;;;6.00;77.90;;;;;;5116612;28;20034;-74
2023/04/25 21:09:13;;;;;;;0.80;0.40;;;5.90;77.90;;;;;;5098606;28;20047;-74
2023/04/25 21:11:39;;;;;;;0.55;0.30;;;5.90;78.00;;;;;;5098948;28;20051;-74
2023/04/25 21:14:06;;;;;;;0.30;0.30;;;5.90;78.10;;;;;;5122009;28;20092;-75
2023/04/25 21:16:34;;;;;;;0.43;0.20;;;6.00;78.20;;;;;;5117815;28;20047;-73
2023/04/25 21:19:01;;;;;;;0.50;0.20;;;5.80;78.20;;;;;;5115375;28;20119;-73
2023/04/25 21:21:27;;;;;;;0.75;0.45;;;5.90;78.30;;;;;;5115614;28;20477;-74
2023/04/25 21:23:56;;;;;;;0.38;0.30;;;5.80;78.20;;;;;;5115791;28;20031;-74
2023/04/25 21:26:22;;;;;;;0.40;0.20;;;5.80;78.20;;;;;;5058273;28;20521;-74
2023/04/25 21:28:48;;;;;;;0.40;0.40;;;5.80;78.20;;;;;;5059027;28;20093;-74
2023/04/25 21:31:14;;;;;;;1.33;0.52;;;5.80;78.90;;;;;;5092861;28;20511;-71
2023/04/25 21:33:40;;;;;;;0.70;0.30;;;5.70;78.30;;;;;;5092785;28;20055;-74
2023/04/25 21:36:06;;;;;;;0.73;0.40;;;5.70;78.40;;;;;;5092752;28;20052;-73
2023/04/25 21:38:32;;;;;;;0.20;0.20;;;5.60;78.40;;;;;;5092534;28;20456;-72
2023/04/25 21:40:58;;;;;;;0.30;0.20;;;5.60;78.40;;;;;;5092753;28;20044;-70
2023/04/25 21:43:24;;;;;;;0.95;0.50;;;5.60;78.50;;;;;;5092598;28;20032;-74
2023/04/25 21:45:49;;;;;;;0.30;0.30;;;5.60;78.50;;;;;;5092878;28;20065;-73
2023/04/25 21:48:15;;;;;;;0.43;0.25;;;5.60;78.50;;;;;;5092746;28;20044;-73
2023/04/25 21:50:40;;;;;;;0.50;0.40;;;5.60;78.50;;;;;;5090138;28;20044;-73
2023/04/25 21:53:07;;;;;;;0.52;0.50;;;5.50;78.50;;;;;;5092567;28;20047;-74
2023/04/25 21:55:32;;;;;;;0.40;0.40;;;5.60;78.60;;;;;;5092885;28;20405;-73
2023/04/25 21:57:58;;;;;;;0.32;0.32;;;5.60;78.70;;;;;;5108243;28;20039;-71
2023/04/25 22:00:24;;;;;;;0.57;0.45;;;5.50;78.70;;;;;;5114867;28;20508;-72
2023/04/25 22:02:50;;;;;;;0.82;0.40;;;5.40;78.70;;;;;;5096005;28;20122;-72
2023/04/25 22:05:21;;;;;;;0.35;0.28;;;5.40;78.70;;;;;;5114802;28;20043;-71
2023/04/25 22:07:49;;;;;;;0.22;0.22;;;5.40;78.80;;;;;;5114672;28;20490;-74
2023/04/25 22:10:15;;;;;;;0.30;0.30;;;5.40;78.90;;;;;;5115189;28;20047;-72
2023/04/25 22:12:41;;;;;;;0.32;0.30;;;5.40;78.90;;;;;;5095919;28;20075;-74
2023/04/25 22:15:08;;;;;;;0.30;0.30;;;5.40;79.00;;;;;;5117725;28;20050;-74
2023/04/25 22:17:34;;;;;;;0.52;0.35;;;5.30;78.90;;;;;;5119552;28;20044;-73
2023/04/25 22:20:04;;;;;;;0.20;0.20;;;5.30;79.00;;;;;;5115298;28;20048;-74
2023/04/25 22:22:29;;;;;;;0.40;0.25;;;5.30;79.20;;;;;;5115704;28;20054;-74
2023/04/25 22:24:55;;;;;;;0.43;0.40;;;5.20;79.10;;;;;;5118707;28;20052;-74
2023/04/25 22:27:21;;;;;;;0.55;0.50;;;5.20;79.20;;;;;;5116628;28;20393;-74
2023/04/25 22:29:46;;;;;;;0.52;0.38;;;5.20;79.30;;;;;;5114440;28;20051;-73
2023/04/25 22:32:12;;;;;;;0.30;0.30;;;5.20;79.30;;;;;;5114958;28;20130;-73
2023/04/25 22:34:38;;;;;;;1.15;0.30;;;5.10;79.40;;;;;;5115595;28;20082;-74
2023/04/25 22:37:03;;;;;;;0.28;0.28;;;5.20;79.50;;;;;;5097897;28;20048;-74
2023/04/25 22:39:29;;;;;;;0.88;0.30;;;5.10;79.40;;;;;;5115990;28;20078;-74
2023/04/25 22:41:54;;;;;;;0.57;0.40;;;5.10;79.50;;;;;;5078295;28;20394;-74
2023/04/25 22:44:21;;;;;;;0.63;0.30;;;5.10;79.50;;;;;;5114379;28;20039;-73
2023/04/25 22:46:46;;;;;;;0.28;0.28;;;5.00;79.50;;;;;;5114546;28;20569;-73
2023/04/25 22:49:12;;;;;;;0.40;0.40;;;5.00;79.50;;;;;;5114362;28;20073;-73
2023/04/25 22:51:38;;;;;;;0.30;0.30;;;5.00;79.60;;;;;;5114205;28;20390;-74
2023/04/25 22:54:04;;;;;;;0.32;0.30;;;5.00;79.60;;;;;;5113888;28;20062;-73
2023/04/25 22:56:30;;;;;;;0.40;0.40;;;5.00;79.70;;;;;;5113927;28;20097;-73
2023/04/25 22:58:55;;;;;;;1.27;0.47;;;4.90;79.70;;;;;;5114531;28;20423;-74
2023/04/25 23:01:21;;;;;;;0.43;0.43;;;4.90;79.70;;;;;;5113372;28;20405;-74
2023/04/25 23:03:47;;;;;;;0.68;0.40;;;4.90;79.70;;;;;;5114174;28;20054;-73
2023/04/25 23:06:12;;;;;;;0.28;0.20;;;4.90;79.70;;;;;;5093791;28;20508;-73
2023/04/25 23:08:38;;;;;;;0.60;0.43;;;4.80;79.80;;;;;;5114179;28;20040;-74
2023/04/25 23:11:06;;;;;;;0.38;0.32;;;4.80;79.80;;;;;;5115527;28;20466;-74
2023/04/25 23:13:35;;;;;;;0.60;0.40;;;4.80;79.90;;;;;;5120514;28;20039;-74
2023/04/25 23:16:07;;;;;;;0.60;0.40;;;4.80;80.00;;;;;;5099558;28;20123;-74
2023/04/25 23:18:35;;;;;;;0.40;0.40;;;4.70;80.00;;;;;;5079060;28;20469;-72
2023/04/25 23:21:01;;;;;;;0.28;0.20;;;4.60;80.10;;;;;;5113703;28;20044;-73
2023/04/25 23:23:27;;;;;;;0.40;0.40;;;4.70;80.20;;;;;;5113612;28;20028;-73
2023/04/25 23:25:53;;;;;;;0.43;0.40;;;4.60;80.20;;;;;;5113464;28;20159;-73
2023/04/25 23:28:19;;;;;;;0.60;0.40;;;4.60;80.30;;;;;;5094707;28;20122;-73
2023/04/25 23:30:45;;;;;;;1.02;0.47;;;4.60;80.40;;;;;;5114188;28;20044;-73
2023/04/25 23:33:10;;;;;;;0.55;0.28;;;4.50;80.40;;;;;;5113746;28;20046;-73
2023/04/25 23:35:37;;;;;;;0.70;0.40;;;4.50;80.40;;;;;;5114240;28;20082;-73
2023/04/25 23:38:03;;;;;;;0.40;0.40;;;4.50;80.50;;;;;;5113444;28;20089;-72
2023/04/25 23:40:30;;;;;;;0.40;0.40;;;4.50;80.60;;;;;;5113643;28;20059;-73
2023/04/25 23:42:56;;;;;;;0.50;0.50;;;4.40;80.60;;;;;;5094104;28;20127;-74
2023/04/25 23:45:22;;;;;;;0.73;0.55;;;4.40;80.60;;;;;;5113471;28;20062;-73
2023/04/25 23:47:48;;;;;;;0.55;0.40;;;4.40;80.70;;;;;;5114257;28;20055;-73
2023/04/25 23:50:14;;;;;;;0.45;0.40;;;4.30;80.70;;;;;;5112957;28;20039;-73
2023/04/25 23:52:40;;;;;;;0.50;0.40;;;4.30;80.70;;;;;;5113092;28;20035;-73
2023/04/25 23:55:06;;;;;;;0.35;0.35;;;4.30;80.80;;;;;;5094960;28;20107;-72
2023/04/25 23:57:32;;;;;;;0.43;0.43;;;4.20;80.80;;;;;;5112904;28;20044;-72
2023/04/25 23:59:58;;;;;;;0.40;0.40;;;4.30;80.90;;;;;;5113288;28;20438;-72
